Time;durP1;ratioP1;P1;durP2;ratioP2;P2;SDS_P1;SDS_P2;PMS_P1;PMS_P2;Temp;Humidity;BMP_temperature;BMP_pressure;BME280_temperature;BME280_humidity;BME280_pressure;Samples;Min_cycle;Max_cycle;Signal;HPM_P1;HPM_P2
2022/12/14 08:55:10;;;;;;;47.63;29.10;;;;;;;;;;6188653;23;20055;-90
2022/12/14 09:16:26;;;;;;;32.20;21.75;;;;;;;;;;6185929;23;20032;-92
2022/12/14 09:19:35;;;;;;;33.97;23.35;;;;;;;;;;6133131;23;20009;-93
2022/12/14 10:25:33;;;;;;;14.88;10.70;;;;;;;;;;6183838;23;20483;-92
2022/12/14 10:32:08;;;;;;;19.42;11.65;;;;;;;;;;6186177;23;20020;-91
2022/12/14 10:35:26;;;;;;;19.02;13.75;;;;;;;;;;6065667;23;20011;-91
2022/12/14 10:38:36;;;;;;;26.00;17.58;;;;;;;;;;6014900;23;20011;-92
2022/12/14 10:41:50;;;;;;;21.80;14.73;;;;;;;;;;6000838;23;20014;-91
2022/12/14 10:45:10;;;;;;;26.33;16.05;;;;;;;;;;6101969;23;20017;-91
2022/12/14 10:47:38;;;;;;;21.77;14.38;;;;;;;;;;6134663;23;20021;-91
2022/12/14 10:50:27;;;;;;;21.23;14.40;;;;;;;;;;6133952;23;20017;-91
2022/12/14 10:52:53;;;;;;;24.15;15.70;;;;;;;;;;6109744;23;20387;-92
2022/12/14 10:55:34;;;;;;;22.70;15.48;;;;;;;;;;6089091;23;20008;-92
2022/12/14 11:01:44;;;;;;;21.83;15.00;;;;;;;;;;6184511;23;20044;-91
2022/12/14 11:04:29;;;;;;;20.42;14.23;;;;;;;;;;6086133;23;20005;-91
2022/12/14 11:06:56;;;;;;;23.27;13.00;;;;;;;;;;6134397;23;20003;-91
2022/12/14 11:09:23;;;;;;;20.85;13.32;;;;;;;;;;6085896;23;20001;-89
2022/12/14 11:12:02;;;;;;;18.95;12.98;;;;;;;;;;6084797;23;20050;-92
2022/12/14 11:14:27;;;;;;;23.25;13.18;;;;;;;;;;6109444;23;20092;-91
2022/12/14 11:16:53;;;;;;;16.77;10.80;;;;;;;;;;6108574;23;20013;-91
2022/12/14 11:19:21;;;;;;;18.92;12.55;;;;;;;;;;6107512;23;20005;-91
2022/12/14 11:21:47;;;;;;;21.67;11.90;;;;;;;;;;6108414;23;20009;-92
2022/12/14 11:24:26;;;;;;;17.73;12.70;;;;;;;;;;6108456;23;20348;-91
2022/12/14 11:27:00;;;;;;;17.13;11.25;;;;;;;;;;6086073;23;20017;-91
2022/12/14 11:29:36;;;;;;;15.57;11.00;;;;;;;;;;6109657;23;20508;-90
2022/12/14 11:32:01;;;;;;;17.55;12.02;;;;;;;;;;6133400;23;20013;-91
2022/12/14 11:34:37;;;;;;;16.90;11.05;;;;;;;;;;6109393;23;20146;-91
2022/12/14 11:37:09;;;;;;;19.40;12.60;;;;;;;;;;6110155;23;20013;-91
2022/12/14 11:39:34;;;;;;;18.73;11.40;;;;;;;;;;6133798;23;20009;-91
2022/12/14 11:42:01;;;;;;;16.67;10.50;;;;;;;;;;6134002;23;19997;-90
2022/12/14 11:44:32;;;;;;;17.83;11.23;;;;;;;;;;6085759;23;20005;-91
2022/12/14 11:46:58;;;;;;;16.65;10.38;;;;;;;;;;6134099;23;20092;-91
2022/12/14 11:49:37;;;;;;;18.50;10.48;;;;;;;;;;6133617;23;20040;-91
2022/12/14 11:52:03;;;;;;;18.58;11.70;;;;;;;;;;6158452;23;20020;-90
2022/12/14 11:54:32;;;;;;;16.25;11.07;;;;;;;;;;6157863;23;20021;-91
2022/12/14 11:57:06;;;;;;;14.15;9.02;;;;;;;;;;6109602;23;20009;-90
2022/12/14 11:59:56;;;;;;;16.05;10.85;;;;;;;;;;6110622;23;20005;-91
2022/12/14 12:02:34;;;;;;;16.60;10.57;;;;;;;;;;6112063;23;20034;-91
2022/12/14 12:05:16;;;;;;;15.50;9.68;;;;;;;;;;6109285;23;20071;-91
2022/12/14 12:07:43;;;;;;;12.80;9.13;;;;;;;;;;6109184;23;20005;-91
2022/12/14 12:10:11;;;;;;;15.23;8.95;;;;;;;;;;6134218;23;20041;-91
2022/12/14 12:12:37;;;;;;;14.23;9.18;;;;;;;;;;6133494;23;20147;-91
2022/12/14 12:15:03;;;;;;;14.75;9.27;;;;;;;;;;6085742;23;20088;-91
2022/12/14 12:17:36;;;;;;;13.30;8.25;;;;;;;;;;6134098;23;20005;-90
2022/12/14 12:20:11;;;;;;;13.25;7.85;;;;;;;;;;6109714;23;20009;-91
2022/12/14 12:22:38;;;;;;;14.48;8.73;;;;;;;;;;6110542;23;20012;-91
2022/12/14 12:25:04;;;;;;;11.82;7.95;;;;;;;;;;6133516;23;20013;-89
2022/12/14 12:27:30;;;;;;;15.63;8.48;;;;;;;;;;6085188;23;20437;-92
2022/12/14 12:29:58;;;;;;;11.15;7.45;;;;;;;;;;6085564;23;20005;-90
2022/12/14 12:32:25;;;;;;;11.18;8.05;;;;;;;;;;6158034;23;20007;-90
2022/12/14 12:34:51;;;;;;;11.63;7.72;;;;;;;;;;6158864;23;20001;-91
2022/12/14 12:37:44;;;;;;;11.07;7.95;;;;;;;;;;6134305;23;20005;-91
2022/12/14 12:40:21;;;;;;;11.02;7.57;;;;;;;;;;6133595;23;20005;-91
2022/12/14 12:43:05;;;;;;;10.90;7.70;;;;;;;;;;6109349;23;20039;-90
2022/12/14 12:45:34;;;;;;;10.57;7.57;;;;;;;;;;6109020;23;20031;-90
2022/12/14 12:48:02;;;;;;;12.57;7.53;;;;;;;;;;6109356;23;20013;-92
2022/12/14 12:50:33;;;;;;;12.85;7.50;;;;;;;;;;6085854;23;20009;-91
2022/12/14 12:53:04;;;;;;;13.95;7.75;;;;;;;;;;6109385;23;20059;-90
2022/12/14 12:55:55;;;;;;;9.60;6.85;;;;;;;;;;6109325;23;20016;-91
2022/12/14 12:58:31;;;;;;;11.00;6.82;;;;;;;;;;6087469;23;20009;-91
2022/12/14 13:00:59;;;;;;;10.50;7.05;;;;;;;;;;6109282;23;20005;-91
2022/12/14 13:03:38;;;;;;;10.57;6.82;;;;;;;;;;6109144;23;20016;-91
2022/12/14 13:06:33;;;;;;;10.48;7.00;;;;;;;;;;6109785;23;20009;-90
2022/12/14 13:09:00;;;;;;;10.07;7.13;;;;;;;;;;6133534;23;20013;-91
2022/12/14 13:11:31;;;;;;;9.10;6.63;;;;;;;;;;6085293;23;20001;-90
2022/12/14 13:14:02;;;;;;;12.13;7.38;;;;;;;;;;6085590;23;20140;-91
2022/12/14 13:16:32;;;;;;;7.60;5.63;;;;;;;;;;6110832;23;20031;-91
2022/12/14 13:19:01;;;;;;;10.77;6.53;;;;;;;;;;6111848;23;20103;-91
2022/12/14 13:21:42;;;;;;;9.45;6.70;;;;;;;;;;6087502;23;20033;-91
2022/12/14 13:24:17;;;;;;;8.00;6.20;;;;;;;;;;6087983;23;20456;-91
2022/12/14 13:26:58;;;;;;;9.43;6.25;;;;;;;;;;6110356;23;20075;-90
2022/12/14 13:29:36;;;;;;;9.25;5.82;;;;;;;;;;6134831;23;20009;-91
2022/12/14 13:32:27;;;;;;;10.45;6.38;;;;;;;;;;6110528;23;20003;-90
2022/12/14 13:34:59;;;;;;;9.38;6.38;;;;;;;;;;6110025;23;20009;-90
2022/12/14 13:37:41;;;;;;;7.65;5.75;;;;;;;;;;6111522;23;20072;-90
2022/12/14 13:40:36;;;;;;;7.80;5.63;;;;;;;;;;6111092;23;20514;-91
2022/12/14 13:43:19;;;;;;;10.93;6.53;;;;;;;;;;6138735;23;20433;-91
2022/12/14 13:45:45;;;;;;;9.40;5.65;;;;;;;;;;6135063;23;20013;-91
2022/12/14 13:48:22;;;;;;;7.38;4.93;;;;;;;;;;6110897;23;20009;-90
2022/12/14 13:50:55;;;;;;;9.38;5.82;;;;;;;;;;6110617;23;20037;-90
2022/12/14 13:53:55;;;;;;;6.80;4.78;;;;;;;;;;6111305;23;20100;-90
2022/12/14 13:56:27;;;;;;;9.25;6.35;;;;;;;;;;6115061;23;20044;-90
2022/12/14 13:58:52;;;;;;;8.13;5.18;;;;;;;;;;6111412;23;20012;-91
2022/12/14 14:01:20;;;;;;;8.57;5.13;;;;;;;;;;6086345;23;20009;-90
2022/12/14 14:04:06;;;;;;;7.82;4.85;;;;;;;;;;6134995;23;20016;-90
2022/12/14 14:06:40;;;;;;;8.23;5.10;;;;;;;;;;6113791;23;20016;-90
2022/12/14 14:09:33;;;;;;;9.10;5.70;;;;;;;;;;6086999;23;20016;-91
2022/12/14 14:12:37;;;;;;;10.10;5.40;;;;;;;;;;6134682;23;20441;-91
2022/12/14 14:15:31;;;;;;;8.48;6.30;;;;;;;;;;6134004;23;20012;-91
2022/12/14 14:18:03;;;;;;;9.82;5.35;;;;;;;;;;6134810;23;20001;-90
2022/12/14 14:20:46;;;;;;;9.32;5.22;;;;;;;;;;6110176;23;20012;-92
2022/12/14 14:23:14;;;;;;;9.70;6.10;;;;;;;;;;6111293;23;20008;-92
2022/12/14 14:26:25;;;;;;;10.10;5.70;;;;;;;;;;6159208;23;20013;-92
2022/12/14 14:35:44;;;;;;;8.45;5.50;;;;;;;;;;6158974;23;20065;-93
2022/12/14 14:38:31;;;;;;;11.25;5.00;;;;;;;;;;6163040;23;20406;-91
2022/12/14 14:41:36;;;;;;;10.48;5.65;;;;;;;;;;6087488;23;20032;-91
2022/12/14 14:44:33;;;;;;;8.60;5.43;;;;;;;;;;6163361;23;20329;-91
2022/12/14 14:47:11;;;;;;;9.48;4.97;;;;;;;;;;6159121;23;20393;-90
2022/12/14 14:49:39;;;;;;;9.43;5.18;;;;;;;;;;6087565;23;20437;-90
2022/12/14 14:52:36;;;;;;;9.38;5.40;;;;;;;;;;6085167;23;20009;-89
2022/12/14 14:55:36;;;;;;;8.25;5.32;;;;;;;;;;6157600;23;20001;-90
2022/12/14 14:58:01;;;;;;;10.85;5.78;;;;;;;;;;6133281;23;20005;-90
2022/12/14 15:00:27;;;;;;;8.73;5.10;;;;;;;;;;6133982;23;20019;-91
2022/12/14 15:02:54;;;;;;;12.00;4.85;;;;;;;;;;6109423;23;20019;-91
2022/12/14 15:05:32;;;;;;;9.10;5.30;;;;;;;;;;6110273;23;20035;-91
2022/12/14 15:07:57;;;;;;;8.93;5.20;;;;;;;;;;6111162;23;20040;-91
2022/12/14 15:10:27;;;;;;;9.43;5.40;;;;;;;;;;6084799;23;20005;-91
2022/12/14 15:12:55;;;;;;;10.57;5.38;;;;;;;;;;6110153;23;20013;-90
2022/12/14 15:15:43;;;;;;;9.90;5.43;;;;;;;;;;6086159;23;20005;-91
2022/12/14 15:18:14;;;;;;;13.80;6.57;;;;;;;;;;6134654;23;20041;-90
2022/12/14 15:20:40;;;;;;;13.65;6.30;;;;;;;;;;6108833;23;20437;-90
2022/12/14 15:23:05;;;;;;;11.85;6.65;;;;;;;;;;6132698;23;20012;-91
2022/12/14 15:25:31;;;;;;;8.98;6.18;;;;;;;;;;6084662;23;20001;-91
2022/12/14 15:28:07;;;;;;;11.02;5.90;;;;;;;;;;6109598;23;20009;-91
2022/12/14 15:30:32;;;;;;;9.13;5.50;;;;;;;;;;6109252;23;20005;-88
2022/12/14 15:33:07;;;;;;;9.38;5.72;;;;;;;;;;6085873;23;20095;-91
2022/12/14 15:35:38;;;;;;;10.07;5.70;;;;;;;;;;6133392;23;20016;-90
2022/12/14 15:38:05;;;;;;;9.88;6.22;;;;;;;;;;6108900;23;20047;-87
2022/12/14 15:40:30;;;;;;;10.30;5.38;;;;;;;;;;6109848;23;20078;-90
2022/12/14 15:42:58;;;;;;;10.18;5.95;;;;;;;;;;6085532;23;20337;-90
2022/12/14 15:45:24;;;;;;;9.20;5.85;;;;;;;;;;6110180;23;20017;-90
2022/12/14 15:47:50;;;;;;;9.48;5.65;;;;;;;;;;6109388;23;20005;-90
2022/12/14 15:50:29;;;;;;;10.00;5.88;;;;;;;;;;6084432;23;20032;-90
2022/12/14 15:52:58;;;;;;;9.27;5.72;;;;;;;;;;6109628;23;20032;-90
2022/12/14 15:55:29;;;;;;;10.40;6.32;;;;;;;;;;6109739;23;20100;-90
2022/12/14 15:57:58;;;;;;;11.00;5.70;;;;;;;;;;6109878;23;20005;-89
2022/12/14 16:00:24;;;;;;;10.60;5.43;;;;;;;;;;6085958;23;20009;-90
2022/12/14 16:02:50;;;;;;;9.20;6.20;;;;;;;;;;6084842;23;20357;-89
2022/12/14 16:05:19;;;;;;;12.13;6.93;;;;;;;;;;6133108;23;20119;-90
2022/12/14 16:07:46;;;;;;;7.57;5.13;;;;;;;;;;6110106;23;20013;-89
2022/12/14 16:10:26;;;;;;;10.95;6.07;;;;;;;;;;6108570;23;20005;-90
2022/12/14 16:12:55;;;;;;;9.48;5.70;;;;;;;;;;6108808;23;20096;-89
2022/12/14 16:15:27;;;;;;;8.68;5.82;;;;;;;;;;6085787;23;20012;-90
2022/12/14 16:17:54;;;;;;;10.50;6.45;;;;;;;;;;6086007;23;20092;-90
2022/12/14 16:20:24;;;;;;;11.32;6.70;;;;;;;;;;6134106;23;20005;-90
2022/12/14 16:23:00;;;;;;;10.80;5.95;;;;;;;;;;6109734;23;20056;-89
2022/12/14 16:25:26;;;;;;;6.95;5.60;;;;;;;;;;6109307;23;20017;-90
2022/12/14 16:27:52;;;;;;;9.35;6.55;;;;;;;;;;6133676;23;20085;-90
2022/12/14 16:30:28;;;;;;;8.27;5.90;;;;;;;;;;6085735;23;20005;-90
2022/12/14 16:33:16;;;;;;;10.10;6.57;;;;;;;;;;6085462;23;20032;-90
2022/12/14 16:35:42;;;;;;;8.63;5.97;;;;;;;;;;6133564;23;20464;-90
2022/12/14 16:38:16;;;;;;;9.88;5.68;;;;;;;;;;6084960;23;20005;-88
2022/12/14 16:40:58;;;;;;;9.32;5.95;;;;;;;;;;6133822;23;20009;-90
2022/12/14 16:43:34;;;;;;;8.20;5.60;;;;;;;;;;6110062;23;20104;-89
2022/12/14 16:46:03;;;;;;;10.23;6.65;;;;;;;;;;6108830;23;20084;-88
2022/12/14 16:49:22;;;;;;;10.85;6.25;;;;;;;;;;6133540;23;20013;-91
2022/12/14 16:55:31;;;;;;;9.30;5.47;;;;;;;;;;6184398;23;20136;-88
2022/12/14 16:57:58;;;;;;;9.77;6.43;;;;;;;;;;6110140;23;20009;-89
2022/12/14 17:00:26;;;;;;;10.88;5.60;;;;;;;;;;6086812;23;20008;-89
2022/12/14 17:03:05;;;;;;;8.70;6.28;;;;;;;;;;6135336;23;20052;-89
2022/12/14 17:05:35;;;;;;;9.02;5.90;;;;;;;;;;6112130;23;20017;-88
2022/12/14 17:08:00;;;;;;;13.02;5.53;;;;;;;;;;6110735;23;20016;-90
2022/12/14 17:10:27;;;;;;;8.77;5.72;;;;;;;;;;6135140;23;20032;-89
2022/12/14 17:12:57;;;;;;;11.90;5.95;;;;;;;;;;6087172;23;20009;-89
2022/12/14 17:15:24;;;;;;;10.35;6.05;;;;;;;;;;6111114;23;20075;-90
2022/12/14 17:17:50;;;;;;;10.20;5.43;;;;;;;;;;6111308;23;20009;-89
2022/12/14 17:20:38;;;;;;;10.52;7.38;;;;;;;;;;6111180;23;20084;-90
2022/12/14 17:23:05;;;;;;;23.58;18.25;;;;;;;;;;6112226;23;20502;-89
2022/12/14 17:25:33;;;;;;;21.88;15.05;;;;;;;;;;6112119;23;20009;-89
2022/12/14 17:27:58;;;;;;;25.35;17.85;;;;;;;;;;6086993;23;20425;-90
2022/12/14 17:30:24;;;;;;;21.40;14.95;;;;;;;;;;6159657;23;20093;-89
2022/12/14 17:32:52;;;;;;;20.42;14.48;;;;;;;;;;6088626;23;20044;-90
2022/12/14 17:35:27;;;;;;;25.65;15.00;;;;;;;;;;6135076;23;20038;-89
2022/12/14 17:37:55;;;;;;;22.65;14.43;;;;;;;;;;6112092;23;20079;-90
2022/12/14 17:40:20;;;;;;;20.15;14.48;;;;;;;;;;6086522;23;20032;-89
2022/12/14 17:42:50;;;;;;;20.48;13.70;;;;;;;;;;6110325;23;20016;-90
2022/12/14 17:45:24;;;;;;;18.77;13.20;;;;;;;;;;6111520;23;20088;-90
2022/12/14 17:47:49;;;;;;;17.45;13.02;;;;;;;;;;6110774;23;20385;-89
2022/12/14 17:50:16;;;;;;;18.52;13.35;;;;;;;;;;6110665;23;20009;-91
2022/12/14 17:52:43;;;;;;;24.08;13.40;;;;;;;;;;6110782;23;20051;-91
2022/12/14 17:55:23;;;;;;;18.98;13.07;;;;;;;;;;6111037;23;20029;-91
2022/12/14 17:57:54;;;;;;;18.40;12.05;;;;;;;;;;6086970;23;20013;-92
2022/12/14 18:03:11;;;;;;;17.95;11.82;;;;;;;;;;6159500;23;20008;-91
2022/12/14 18:05:37;;;;;;;17.48;11.57;;;;;;;;;;6110079;23;20012;-91
2022/12/14 18:08:03;;;;;;;15.35;10.88;;;;;;;;;;6110542;23;20001;-92
2022/12/14 18:10:28;;;;;;;15.02;10.98;;;;;;;;;;6086569;23;20075;-91
2022/12/14 18:12:54;;;;;;;15.13;11.88;;;;;;;;;;6110591;23;20544;-91
2022/12/14 18:15:41;;;;;;;16.73;10.77;;;;;;;;;;6110472;23;20044;-91
2022/12/14 18:18:06;;;;;;;17.05;11.82;;;;;;;;;;6110377;23;20009;-90
2022/12/14 18:20:32;;;;;;;17.50;11.10;;;;;;;;;;6110198;23;20031;-90
2022/12/14 18:22:57;;;;;;;16.77;11.00;;;;;;;;;;6110297;23;20063;-91
2022/12/14 18:25:34;;;;;;;15.05;10.23;;;;;;;;;;6110047;23;20055;-91
2022/12/14 18:28:00;;;;;;;16.30;11.05;;;;;;;;;;6109750;23;20099;-91
2022/12/14 18:30:26;;;;;;;15.80;10.93;;;;;;;;;;6110501;23;20005;-91
2022/12/14 18:32:51;;;;;;;14.05;10.43;;;;;;;;;;6086383;23;20001;-91
2022/12/14 18:35:18;;;;;;;13.25;9.88;;;;;;;;;;6110094;23;20013;-91
2022/12/14 18:37:48;;;;;;;14.73;9.55;;;;;;;;;;6134883;23;20096;-90
2022/12/14 18:40:18;;;;;;;20.40;10.75;;;;;;;;;;6085596;23;20009;-91
2022/12/14 18:42:44;;;;;;;12.23;8.82;;;;;;;;;;6110283;23;20096;-90
2022/12/14 18:45:18;;;;;;;13.57;8.93;;;;;;;;;;6086217;23;20377;-91
2022/12/14 20:58:54;;;;;;;12.55;9.02;;;;;;;;;;6155780;23;20017;-90
2022/12/14 21:01:38;;;;;;;14.75;10.13;;;;;;;;;;6154277;23;20017;-91
2022/12/14 21:04:35;;;;;;;;;;;;;;;;;;;;;
